sensor_id;sensor_type;location;lat;lon;timestamp;P1;durP1;ratioP1;P2;durP2;ratioP2
62848;SDS011;48941;49.516;8.286;2023-07-16T00:01:38;3.70;;;2.40;;
62848;SDS011;48941;49.516;8.286;2023-07-16T00:04:06;5.40;;;2.15;;
62848;SDS011;48941;49.516;8.286;2023-07-16T00:06:33;3.00;;;2.30;;
62848;SDS011;48941;49.516;8.286;2023-07-16T00:09:01;3.03;;;2.33;;
62848;SDS011;48941;49.516;8.286;2023-07-16T00:11:30;5.18;;;2.28;;
62848;SDS011;48941;49.516;8.286;2023-07-16T00:13:57;4.28;;;2.30;;
62848;SDS011;48941;49.516;8.286;2023-07-16T00:16:25;4.18;;;2.30;;
62848;SDS011;48941;49.516;8.286;2023-07-16T00:18:54;4.68;;;2.10;;
62848;SDS011;48941;49.516;8.286;2023-07-16T00:21:22;2.95;;;2.35;;
62848;SDS011;48941;49.516;8.286;2023-07-16T00:23:50;2.38;;;2.10;;
62848;SDS011;48941;49.516;8.286;2023-07-16T00:26:18;4.57;;;1.80;;
62848;SDS011;48941;49.516;8.286;2023-07-16T00:28:46;3.30;;;1.83;;
62848;SDS011;48941;49.516;8.286;2023-07-16T00:31:13;4.43;;;1.70;;
62848;SDS011;48941;49.516;8.286;2023-07-16T00:33:41;3.30;;;1.90;;
62848;SDS011;48941;49.516;8.286;2023-07-16T00:36:10;2.03;;;1.80;;
62848;SDS011;48941;49.516;8.286;2023-07-16T00:38:39;2.22;;;1.70;;
62848;SDS011;48941;49.516;8.286;2023-07-16T00:41:07;2.10;;;1.90;;
62848;SDS011;48941;49.516;8.286;2023-07-16T00:43:35;2.33;;;1.65;;
62848;SDS011;48941;49.516;8.286;2023-07-16T00:46:03;1.67;;;1.58;;
62848;SDS011;48941;49.516;8.286;2023-07-16T00:48:31;3.67;;;1.92;;
62848;SDS011;48941;49.516;8.286;2023-07-16T00:50:59;6.72;;;1.90;;
62848;SDS011;48941;49.516;8.286;2023-07-16T00:53:29;3.63;;;2.00;;
62848;SDS011;48941;49.516;8.286;2023-07-16T00:55:57;2.28;;;1.77;;
62848;SDS011;48941;49.516;8.286;2023-07-16T00:58:25;2.72;;;1.85;;
62848;SDS011;48941;49.516;8.286;2023-07-16T01:00:53;4.47;;;2.13;;
62848;SDS011;48941;49.516;8.286;2023-07-16T01:03:21;2.13;;;1.70;;
62848;SDS011;48941;49.516;8.286;2023-07-16T01:05:49;2.55;;;1.70;;
62848;SDS011;48941;49.516;8.286;2023-07-16T01:08:27;4.45;;;1.70;;
62848;SDS011;48941;49.516;8.286;2023-07-16T01:11:01;2.45;;;1.95;;
62848;SDS011;48941;49.516;8.286;2023-07-16T01:13:32;3.43;;;2.00;;
62848;SDS011;48941;49.516;8.286;2023-07-16T01:16:01;2.55;;;1.70;;
62848;SDS011;48941;49.516;8.286;2023-07-16T01:18:29;3.45;;;1.98;;
62848;SDS011;48941;49.516;8.286;2023-07-16T01:20:57;3.03;;;1.73;;
62848;SDS011;48941;49.516;8.286;2023-07-16T01:23:43;2.22;;;1.60;;
62848;SDS011;48941;49.516;8.286;2023-07-16T01:26:27;3.10;;;1.70;;
62848;SDS011;48941;49.516;8.286;2023-07-16T01:29:14;5.03;;;1.88;;
62848;SDS011;48941;49.516;8.286;2023-07-16T01:31:48;3.90;;;2.00;;
62848;SDS011;48941;49.516;8.286;2023-07-16T01:34:18;2.58;;;1.80;;
62848;SDS011;48941;49.516;8.286;2023-07-16T01:36:47;2.70;;;1.70;;
62848;SDS011;48941;49.516;8.286;2023-07-16T01:39:16;6.13;;;1.90;;
62848;SDS011;48941;49.516;8.286;2023-07-16T01:41:44;2.50;;;1.73;;
62848;SDS011;48941;49.516;8.286;2023-07-16T01:44:13;3.38;;;1.77;;
62848;SDS011;48941;49.516;8.286;2023-07-16T01:46:41;2.88;;;1.92;;
62848;SDS011;48941;49.516;8.286;2023-07-16T01:49:09;7.10;;;2.55;;
62848;SDS011;48941;49.516;8.286;2023-07-16T01:51:36;5.47;;;2.00;;
62848;SDS011;48941;49.516;8.286;2023-07-16T01:54:04;3.08;;;1.90;;
62848;SDS011;48941;49.516;8.286;2023-07-16T01:56:31;3.15;;;1.70;;
62848;SDS011;48941;49.516;8.286;2023-07-16T01:58:59;4.28;;;2.08;;
62848;SDS011;48941;49.516;8.286;2023-07-16T02:01:29;9.90;;;2.05;;
62848;SDS011;48941;49.516;8.286;2023-07-16T02:03:56;5.07;;;1.85;;
62848;SDS011;48941;49.516;8.286;2023-07-16T02:06:24;6.03;;;1.92;;
62848;SDS011;48941;49.516;8.286;2023-07-16T02:08:52;3.67;;;1.80;;
62848;SDS011;48941;49.516;8.286;2023-07-16T02:11:20;3.88;;;2.05;;
62848;SDS011;48941;49.516;8.286;2023-07-16T02:13:47;4.75;;;2.22;;
62848;SDS011;48941;49.516;8.286;2023-07-16T02:16:15;3.67;;;1.80;;
62848;SDS011;48941;49.516;8.286;2023-07-16T02:18:45;3.35;;;1.90;;
62848;SDS011;48941;49.516;8.286;2023-07-16T02:21:13;5.25;;;1.88;;
62848;SDS011;48941;49.516;8.286;2023-07-16T02:23:41;7.95;;;2.30;;
62848;SDS011;48941;49.516;8.286;2023-07-16T02:26:08;3.67;;;2.10;;
62848;SDS011;48941;49.516;8.286;2023-07-16T02:28:36;3.92;;;2.00;;
62848;SDS011;48941;49.516;8.286;2023-07-16T02:31:04;4.40;;;2.08;;
62848;SDS011;48941;49.516;8.286;2023-07-16T02:33:32;6.10;;;2.10;;
62848;SDS011;48941;49.516;8.286;2023-07-16T02:36:01;2.40;;;1.90;;
62848;SDS011;48941;49.516;8.286;2023-07-16T02:38:29;4.55;;;1.98;;
62848;SDS011;48941;49.516;8.286;2023-07-16T02:40:56;4.95;;;2.03;;
62848;SDS011;48941;49.516;8.286;2023-07-16T02:43:24;5.30;;;2.03;;
62848;SDS011;48941;49.516;8.286;2023-07-16T02:45:52;3.65;;;1.90;;
62848;SDS011;48941;49.516;8.286;2023-07-16T02:48:20;4.85;;;2.10;;
62848;SDS011;48941;49.516;8.286;2023-07-16T02:50:47;6.00;;;2.10;;
62848;SDS011;48941;49.516;8.286;2023-07-16T02:53:16;3.90;;;2.03;;
62848;SDS011;48941;49.516;8.286;2023-07-16T02:55:45;4.32;;;1.98;;
62848;SDS011;48941;49.516;8.286;2023-07-16T02:58:13;4.32;;;2.10;;
62848;SDS011;48941;49.516;8.286;2023-07-16T03:00:40;6.88;;;2.10;;
62848;SDS011;48941;49.516;8.286;2023-07-16T03:03:08;6.88;;;2.05;;
62848;SDS011;48941;49.516;8.286;2023-07-16T03:05:36;6.32;;;2.22;;
62848;SDS011;48941;49.516;8.286;2023-07-16T03:08:04;25.13;;;2.20;;
62848;SDS011;48941;49.516;8.286;2023-07-16T03:10:33;5.50;;;2.30;;
62848;SDS011;48941;49.516;8.286;2023-07-16T03:13:01;5.25;;;2.00;;
62848;SDS011;48941;49.516;8.286;2023-07-16T03:15:29;6.63;;;2.45;;
62848;SDS011;48941;49.516;8.286;2023-07-16T03:17:57;3.80;;;2.30;;
62848;SDS011;48941;49.516;8.286;2023-07-16T03:20:24;6.00;;;2.08;;
62848;SDS011;48941;49.516;8.286;2023-07-16T03:22:52;5.72;;;2.20;;
62848;SDS011;48941;49.516;8.286;2023-07-16T03:25:20;6.35;;;2.17;;
62848;SDS011;48941;49.516;8.286;2023-07-16T03:27:49;4.07;;;2.20;;
62848;SDS011;48941;49.516;8.286;2023-07-16T03:30:17;4.97;;;2.20;;
62848;SDS011;48941;49.516;8.286;2023-07-16T03:32:44;6.07;;;2.13;;
62848;SDS011;48941;49.516;8.286;2023-07-16T03:35:18;7.50;;;1.98;;
62848;SDS011;48941;49.516;8.286;2023-07-16T03:37:50;12.35;;;2.40;;
62848;SDS011;48941;49.516;8.286;2023-07-16T03:40:23;4.88;;;2.10;;
62848;SDS011;48941;49.516;8.286;2023-07-16T03:42:53;4.50;;;2.08;;
62848;SDS011;48941;49.516;8.286;2023-07-16T03:45:21;3.55;;;1.85;;
62848;SDS011;48941;49.516;8.286;2023-07-16T03:47:49;5.43;;;1.98;;
62848;SDS011;48941;49.516;8.286;2023-07-16T03:50:18;8.02;;;2.17;;
62848;SDS011;48941;49.516;8.286;2023-07-16T03:52:46;6.13;;;2.10;;
62848;SDS011;48941;49.516;8.286;2023-07-16T03:55:14;7.43;;;2.33;;
62848;SDS011;48941;49.516;8.286;2023-07-16T03:57:42;4.78;;;1.90;;
62848;SDS011;48941;49.516;8.286;2023-07-16T04:00:12;7.07;;;2.10;;
62848;SDS011;48941;49.516;8.286;2023-07-16T04:02:39;5.47;;;2.20;;
62848;SDS011;48941;49.516;8.286;2023-07-16T04:05:08;4.18;;;1.98;;
62848;SDS011;48941;49.516;8.286;2023-07-16T04:07:36;5.05;;;2.03;;
62848;SDS011;48941;49.516;8.286;2023-07-16T04:10:04;4.22;;;1.90;;
62848;SDS011;48941;49.516;8.286;2023-07-16T04:12:32;5.45;;;2.10;;
62848;SDS011;48941;49.516;8.286;2023-07-16T04:15:00;4.78;;;2.28;;
62848;SDS011;48941;49.516;8.286;2023-07-16T04:17:29;8.60;;;2.13;;
62848;SDS011;48941;49.516;8.286;2023-07-16T04:19:57;6.32;;;2.22;;
62848;SDS011;48941;49.516;8.286;2023-07-16T04:22:25;9.05;;;2.08;;
62848;SDS011;48941;49.516;8.286;2023-07-16T04:24:53;5.80;;;2.10;;
62848;SDS011;48941;49.516;8.286;2023-07-16T04:27:20;4.88;;;2.25;;
62848;SDS011;48941;49.516;8.286;2023-07-16T04:29:48;5.70;;;2.10;;
62848;SDS011;48941;49.516;8.286;2023-07-16T04:32:16;6.32;;;2.08;;
62848;SDS011;48941;49.516;8.286;2023-07-16T04:34:46;6.97;;;2.00;;
62848;SDS011;48941;49.516;8.286;2023-07-16T04:37:14;9.73;;;2.22;;
62848;SDS011;48941;49.516;8.286;2023-07-16T04:39:41;7.22;;;2.05;;
62848;SDS011;48941;49.516;8.286;2023-07-16T04:42:09;8.15;;;2.20;;
62848;SDS011;48941;49.516;8.286;2023-07-16T04:44:37;6.38;;;2.03;;
62848;SDS011;48941;49.516;8.286;2023-07-16T04:47:04;8.35;;;2.15;;
62848;SDS011;48941;49.516;8.286;2023-07-16T04:49:34;4.65;;;2.05;;
62848;SDS011;48941;49.516;8.286;2023-07-16T04:52:04;4.93;;;1.90;;
62848;SDS011;48941;49.516;8.286;2023-07-16T04:54:34;4.07;;;2.00;;
62848;SDS011;48941;49.516;8.286;2023-07-16T04:57:03;10.07;;;2.28;;
62848;SDS011;48941;49.516;8.286;2023-07-16T04:59:31;4.60;;;2.15;;
62848;SDS011;48941;49.516;8.286;2023-07-16T05:01:59;4.43;;;2.00;;
62848;SDS011;48941;49.516;8.286;2023-07-16T05:04:27;4.82;;;2.28;;
62848;SDS011;48941;49.516;8.286;2023-07-16T05:06:55;7.18;;;2.30;;
62848;SDS011;48941;49.516;8.286;2023-07-16T05:09:24;5.45;;;2.35;;
62848;SDS011;48941;49.516;8.286;2023-07-16T05:11:51;3.47;;;2.10;;
62848;SDS011;48941;49.516;8.286;2023-07-16T05:14:19;3.05;;;1.77;;
62848;SDS011;48941;49.516;8.286;2023-07-16T05:16:47;6.22;;;2.00;;
62848;SDS011;48941;49.516;8.286;2023-07-16T05:19:15;6.60;;;2.17;;
62848;SDS011;48941;49.516;8.286;2023-07-16T05:21:43;5.35;;;2.03;;
62848;SDS011;48941;49.516;8.286;2023-07-16T05:24:10;6.32;;;2.17;;
62848;SDS011;48941;49.516;8.286;2023-07-16T05:26:40;6.25;;;2.17;;
62848;SDS011;48941;49.516;8.286;2023-07-16T05:29:07;7.38;;;2.67;;
62848;SDS011;48941;49.516;8.286;2023-07-16T05:31:35;6.10;;;2.25;;
62848;SDS011;48941;49.516;8.286;2023-07-16T05:34:03;4.78;;;2.30;;
62848;SDS011;48941;49.516;8.286;2023-07-16T05:36:31;5.45;;;2.33;;
62848;SDS011;48941;49.516;8.286;2023-07-16T05:38:58;7.38;;;2.13;;
62848;SDS011;48941;49.516;8.286;2023-07-16T05:41:26;6.93;;;2.22;;
62848;SDS011;48941;49.516;8.286;2023-07-16T05:43:55;6.85;;;2.08;;
62848;SDS011;48941;49.516;8.286;2023-07-16T05:46:23;7.15;;;2.55;;
62848;SDS011;48941;49.516;8.286;2023-07-16T05:48:51;5.78;;;2.30;;
62848;SDS011;48941;49.516;8.286;2023-07-16T05:51:19;6.28;;;2.50;;
62848;SDS011;48941;49.516;8.286;2023-07-16T05:53:47;8.05;;;2.35;;
62848;SDS011;48941;49.516;8.286;2023-07-16T05:56:15;6.00;;;2.45;;
62848;SDS011;48941;49.516;8.286;2023-07-16T05:58:43;3.90;;;2.40;;
62848;SDS011;48941;49.516;8.286;2023-07-16T06:01:12;7.90;;;2.60;;
62848;SDS011;48941;49.516;8.286;2023-07-16T06:03:40;7.32;;;2.25;;
62848;SDS011;48941;49.516;8.286;2023-07-16T06:06:08;9.68;;;2.17;;
62848;SDS011;48941;49.516;8.286;2023-07-16T06:08:36;8.00;;;2.20;;
62848;SDS011;48941;49.516;8.286;2023-07-16T06:11:03;6.35;;;2.45;;
62848;SDS011;48941;49.516;8.286;2023-07-16T06:13:31;6.32;;;2.30;;
62848;SDS011;48941;49.516;8.286;2023-07-16T06:15:59;4.70;;;2.55;;
62848;SDS011;48941;49.516;8.286;2023-07-16T06:18:28;9.90;;;3.30;;
62848;SDS011;48941;49.516;8.286;2023-07-16T06:20:56;7.57;;;2.13;;
62848;SDS011;48941;49.516;8.286;2023-07-16T06:23:24;5.55;;;2.30;;
62848;SDS011;48941;49.516;8.286;2023-07-16T06:25:55;4.65;;;2.33;;
62848;SDS011;48941;49.516;8.286;2023-07-16T06:28:23;5.90;;;2.40;;
62848;SDS011;48941;49.516;8.286;2023-07-16T06:30:51;9.93;;;3.10;;
62848;SDS011;48941;49.516;8.286;2023-07-16T06:33:19;6.25;;;2.40;;
62848;SDS011;48941;49.516;8.286;2023-07-16T06:35:48;8.10;;;2.50;;
62848;SDS011;48941;49.516;8.286;2023-07-16T06:38:16;6.78;;;2.33;;
62848;SDS011;48941;49.516;8.286;2023-07-16T06:40:47;11.85;;;2.70;;
62848;SDS011;48941;49.516;8.286;2023-07-16T06:43:15;4.82;;;2.60;;
62848;SDS011;48941;49.516;8.286;2023-07-16T06:45:44;9.88;;;2.33;;
62848;SDS011;48941;49.516;8.286;2023-07-16T06:48:12;9.85;;;2.60;;
62848;SDS011;48941;49.516;8.286;2023-07-16T06:50:40;7.82;;;2.58;;
62848;SDS011;48941;49.516;8.286;2023-07-16T06:53:09;8.50;;;2.90;;
62848;SDS011;48941;49.516;8.286;2023-07-16T06:55:36;8.80;;;2.60;;
62848;SDS011;48941;49.516;8.286;2023-07-16T06:58:04;5.45;;;2.45;;
62848;SDS011;48941;49.516;8.286;2023-07-16T07:00:32;11.38;;;2.70;;
62848;SDS011;48941;49.516;8.286;2023-07-16T07:03:00;8.57;;;2.70;;
62848;SDS011;48941;49.516;8.286;2023-07-16T07:05:28;7.05;;;2.72;;
62848;SDS011;48941;49.516;8.286;2023-07-16T07:07:55;7.43;;;2.67;;
62848;SDS011;48941;49.516;8.286;2023-07-16T07:10:25;10.10;;;3.15;;
62848;SDS011;48941;49.516;8.286;2023-07-16T07:12:52;8.02;;;2.80;;
62848;SDS011;48941;49.516;8.286;2023-07-16T07:15:20;5.78;;;2.60;;
62848;SDS011;48941;49.516;8.286;2023-07-16T07:17:48;8.98;;;2.90;;
62848;SDS011;48941;49.516;8.286;2023-07-16T07:20:18;8.85;;;2.85;;
62848;SDS011;48941;49.516;8.286;2023-07-16T07:22:46;4.82;;;2.70;;
62848;SDS011;48941;49.516;8.286;2023-07-16T07:25:14;7.85;;;2.90;;
62848;SDS011;48941;49.516;8.286;2023-07-16T07:27:43;10.30;;;3.35;;
62848;SDS011;48941;49.516;8.286;2023-07-16T07:30:14;7.60;;;3.00;;
62848;SDS011;48941;49.516;8.286;2023-07-16T07:32:41;8.32;;;2.72;;
62848;SDS011;48941;49.516;8.286;2023-07-16T07:35:09;4.50;;;2.50;;
62848;SDS011;48941;49.516;8.286;2023-07-16T07:37:37;8.00;;;3.15;;
62848;SDS011;48941;49.516;8.286;2023-07-16T07:40:05;7.63;;;2.70;;
62848;SDS011;48941;49.516;8.286;2023-07-16T07:42:34;8.88;;;3.05;;
62848;SDS011;48941;49.516;8.286;2023-07-16T07:45:03;7.63;;;2.80;;
62848;SDS011;48941;49.516;8.286;2023-07-16T07:47:32;8.40;;;3.08;;
62848;SDS011;48941;49.516;8.286;2023-07-16T07:49:59;8.95;;;3.10;;
62848;SDS011;48941;49.516;8.286;2023-07-16T07:52:27;5.97;;;2.60;;
62848;SDS011;48941;49.516;8.286;2023-07-16T07:54:55;7.50;;;2.80;;
62848;SDS011;48941;49.516;8.286;2023-07-16T07:57:23;6.22;;;2.60;;
62848;SDS011;48941;49.516;8.286;2023-07-16T07:59:50;5.97;;;2.45;;
62848;SDS011;48941;49.516;8.286;2023-07-16T08:02:24;5.97;;;2.70;;
62848;SDS011;48941;49.516;8.286;2023-07-16T08:04:52;7.70;;;2.88;;
62848;SDS011;48941;49.516;8.286;2023-07-16T08:07:21;9.85;;;2.75;;
62848;SDS011;48941;49.516;8.286;2023-07-16T08:09:49;8.35;;;3.08;;
62848;SDS011;48941;49.516;8.286;2023-07-16T08:12:16;4.40;;;2.30;;
62848;SDS011;48941;49.516;8.286;2023-07-16T08:14:44;6.35;;;2.88;;
62848;SDS011;48941;49.516;8.286;2023-07-16T08:17:12;9.38;;;2.63;;
62848;SDS011;48941;49.516;8.286;2023-07-16T08:19:41;8.52;;;2.70;;
62848;SDS011;48941;49.516;8.286;2023-07-16T08:22:09;9.18;;;2.90;;
62848;SDS011;48941;49.516;8.286;2023-07-16T08:24:38;6.60;;;2.63;;
62848;SDS011;48941;49.516;8.286;2023-07-16T08:27:05;8.02;;;2.50;;
62848;SDS011;48941;49.516;8.286;2023-07-16T08:29:35;7.18;;;2.97;;
62848;SDS011;48941;49.516;8.286;2023-07-16T08:32:03;7.22;;;2.47;;
62848;SDS011;48941;49.516;8.286;2023-07-16T08:34:31;6.25;;;2.58;;
62848;SDS011;48941;49.516;8.286;2023-07-16T08:37:00;9.02;;;2.60;;
62848;SDS011;48941;49.516;8.286;2023-07-16T08:39:28;8.25;;;2.95;;
62848;SDS011;48941;49.516;8.286;2023-07-16T08:41:55;9.38;;;2.90;;
62848;SDS011;48941;49.516;8.286;2023-07-16T08:44:24;5.70;;;2.97;;
62848;SDS011;48941;49.516;8.286;2023-07-16T08:46:52;7.85;;;3.00;;
62848;SDS011;48941;49.516;8.286;2023-07-16T08:49:20;7.78;;;3.03;;
62848;SDS011;48941;49.516;8.286;2023-07-16T08:51:49;10.82;;;2.88;;
62848;SDS011;48941;49.516;8.286;2023-07-16T08:54:18;5.32;;;2.20;;
62848;SDS011;48941;49.516;8.286;2023-07-16T08:56:46;6.93;;;2.60;;
62848;SDS011;48941;49.516;8.286;2023-07-16T08:59:15;11.07;;;2.83;;
62848;SDS011;48941;49.516;8.286;2023-07-16T09:01:43;4.35;;;2.50;;
62848;SDS011;48941;49.516;8.286;2023-07-16T09:04:11;6.25;;;2.30;;
62848;SDS011;48941;49.516;8.286;2023-07-16T09:06:39;5.22;;;2.58;;
62848;SDS011;48941;49.516;8.286;2023-07-16T09:09:07;3.15;;;2.22;;
62848;SDS011;48941;49.516;8.286;2023-07-16T09:11:36;8.65;;;2.60;;
62848;SDS011;48941;49.516;8.286;2023-07-16T09:14:14;9.52;;;2.42;;
62848;SDS011;48941;49.516;8.286;2023-07-16T09:16:46;4.85;;;2.55;;
62848;SDS011;48941;49.516;8.286;2023-07-16T09:19:15;6.47;;;2.67;;
62848;SDS011;48941;49.516;8.286;2023-07-16T09:21:47;8.02;;;2.17;;
62848;SDS011;48941;49.516;8.286;2023-07-16T09:24:15;6.20;;;2.72;;
62848;SDS011;48941;49.516;8.286;2023-07-16T09:26:49;5.75;;;2.33;;
62848;SDS011;48941;49.516;8.286;2023-07-16T09:29:18;5.43;;;2.38;;
62848;SDS011;48941;49.516;8.286;2023-07-16T09:31:53;4.35;;;2.53;;
62848;SDS011;48941;49.516;8.286;2023-07-16T09:34:22;7.72;;;2.55;;
62848;SDS011;48941;49.516;8.286;2023-07-16T09:36:50;5.60;;;2.53;;
62848;SDS011;48941;49.516;8.286;2023-07-16T09:39:18;5.32;;;2.40;;
62848;SDS011;48941;49.516;8.286;2023-07-16T09:41:46;4.00;;;2.17;;
62848;SDS011;48941;49.516;8.286;2023-07-16T09:44:16;3.03;;;2.20;;
62848;SDS011;48941;49.516;8.286;2023-07-16T09:46:44;7.32;;;2.53;;
62848;SDS011;48941;49.516;8.286;2023-07-16T09:49:14;4.95;;;2.10;;
62848;SDS011;48941;49.516;8.286;2023-07-16T09:51:42;3.22;;;2.17;;
62848;SDS011;48941;49.516;8.286;2023-07-16T09:54:12;6.53;;;2.47;;
62848;SDS011;48941;49.516;8.286;2023-07-16T09:56:43;8.55;;;2.58;;
62848;SDS011;48941;49.516;8.286;2023-07-16T09:59:13;7.03;;;2.83;;
62848;SDS011;48941;49.516;8.286;2023-07-16T10:01:44;5.20;;;2.40;;
62848;SDS011;48941;49.516;8.286;2023-07-16T10:04:12;5.68;;;2.60;;
62848;SDS011;48941;49.516;8.286;2023-07-16T10:06:49;6.90;;;2.70;;
62848;SDS011;48941;49.516;8.286;2023-07-16T10:09:37;6.47;;;2.40;;
62848;SDS011;48941;49.516;8.286;2023-07-16T10:12:07;6.72;;;2.67;;
62848;SDS011;48941;49.516;8.286;2023-07-16T10:14:46;5.72;;;2.63;;
62848;SDS011;48941;49.516;8.286;2023-07-16T10:17:16;9.25;;;2.83;;
62848;SDS011;48941;49.516;8.286;2023-07-16T10:19:52;4.68;;;2.63;;
62848;SDS011;48941;49.516;8.286;2023-07-16T10:22:36;5.55;;;2.40;;
62848;SDS011;48941;49.516;8.286;2023-07-16T10:25:07;4.40;;;2.35;;
62848;SDS011;48941;49.516;8.286;2023-07-16T10:27:36;7.53;;;2.65;;
62848;SDS011;48941;49.516;8.286;2023-07-16T10:30:05;4.32;;;2.35;;
62848;SDS011;48941;49.516;8.286;2023-07-16T10:32:35;5.25;;;2.60;;
62848;SDS011;48941;49.516;8.286;2023-07-16T10:35:03;4.15;;;2.47;;
62848;SDS011;48941;49.516;8.286;2023-07-16T10:37:32;6.05;;;2.50;;
62848;SDS011;48941;49.516;8.286;2023-07-16T10:40:00;6.50;;;2.53;;
62848;SDS011;48941;49.516;8.286;2023-07-16T10:42:29;4.88;;;2.47;;
62848;SDS011;48941;49.516;8.286;2023-07-16T10:44:58;5.78;;;2.58;;
62848;SDS011;48941;49.516;8.286;2023-07-16T10:47:29;7.60;;;3.03;;
62848;SDS011;48941;49.516;8.286;2023-07-16T10:50:00;9.15;;;2.95;;
62848;SDS011;48941;49.516;8.286;2023-07-16T10:54:58;7.57;;;2.55;;
62848;SDS011;48941;49.516;8.286;2023-07-16T10:57:26;7.35;;;2.40;;
62848;SDS011;48941;49.516;8.286;2023-07-16T10:59:55;3.28;;;2.20;;
62848;SDS011;48941;49.516;8.286;2023-07-16T11:02:24;4.65;;;2.28;;
62848;SDS011;48941;49.516;8.286;2023-07-16T11:04:53;4.40;;;2.38;;
62848;SDS011;48941;49.516;8.286;2023-07-16T11:07:26;5.45;;;2.45;;
62848;SDS011;48941;49.516;8.286;2023-07-16T11:09:54;7.70;;;2.60;;
62848;SDS011;48941;49.516;8.286;2023-07-16T11:12:22;6.50;;;2.45;;
62848;SDS011;48941;49.516;8.286;2023-07-16T11:14:52;4.45;;;2.40;;
62848;SDS011;48941;49.516;8.286;2023-07-16T11:17:20;5.13;;;2.58;;
62848;SDS011;48941;49.516;8.286;2023-07-16T11:19:51;7.15;;;2.50;;
62848;SDS011;48941;49.516;8.286;2023-07-16T11:22:24;6.60;;;2.58;;
62848;SDS011;48941;49.516;8.286;2023-07-16T11:24:54;4.18;;;2.42;;
62848;SDS011;48941;49.516;8.286;2023-07-16T11:27:22;10.48;;;2.53;;
62848;SDS011;48941;49.516;8.286;2023-07-16T11:29:51;6.03;;;2.55;;
62848;SDS011;48941;49.516;8.286;2023-07-16T11:32:27;6.32;;;2.25;;
62848;SDS011;48941;49.516;8.286;2023-07-16T11:34:57;7.88;;;2.40;;
62848;SDS011;48941;49.516;8.286;2023-07-16T11:37:28;4.22;;;2.33;;
62848;SDS011;48941;49.516;8.286;2023-07-16T11:39:57;6.60;;;2.67;;
62848;SDS011;48941;49.516;8.286;2023-07-16T11:42:28;5.30;;;2.90;;
62848;SDS011;48941;49.516;8.286;2023-07-16T11:44:57;4.47;;;2.22;;
62848;SDS011;48941;49.516;8.286;2023-07-16T11:47:25;8.43;;;2.63;;
62848;SDS011;48941;49.516;8.286;2023-07-16T11:49:54;6.10;;;2.80;;
62848;SDS011;48941;49.516;8.286;2023-07-16T11:52:23;5.00;;;2.65;;
62848;SDS011;48941;49.516;8.286;2023-07-16T11:54:53;4.90;;;2.70;;
62848;SDS011;48941;49.516;8.286;2023-07-16T11:57:21;4.57;;;2.75;;
62848;SDS011;48941;49.516;8.286;2023-07-16T11:59:49;4.80;;;2.40;;
62848;SDS011;48941;49.516;8.286;2023-07-16T12:02:17;5.10;;;3.10;;
62848;SDS011;48941;49.516;8.286;2023-07-16T12:04:45;5.82;;;2.80;;
62848;SDS011;48941;49.516;8.286;2023-07-16T12:07:13;5.05;;;2.70;;
62848;SDS011;48941;49.516;8.286;2023-07-16T12:09:41;4.97;;;2.55;;
62848;SDS011;48941;49.516;8.286;2023-07-16T12:12:10;7.38;;;2.58;;
62848;SDS011;48941;49.516;8.286;2023-07-16T12:14:37;4.50;;;2.70;;
62848;SDS011;48941;49.516;8.286;2023-07-16T12:17:05;4.32;;;2.60;;
62848;SDS011;48941;49.516;8.286;2023-07-16T12:19:33;5.43;;;2.65;;
62848;SDS011;48941;49.516;8.286;2023-07-16T12:22:01;5.85;;;2.75;;
62848;SDS011;48941;49.516;8.286;2023-07-16T12:24:29;8.95;;;2.55;;
62848;SDS011;48941;49.516;8.286;2023-07-16T12:26:57;5.90;;;2.70;;
62848;SDS011;48941;49.516;8.286;2023-07-16T12:29:26;7.38;;;2.60;;
62848;SDS011;48941;49.516;8.286;2023-07-16T12:31:54;5.00;;;2.80;;
62848;SDS011;48941;49.516;8.286;2023-07-16T12:34:21;6.13;;;2.90;;
62848;SDS011;48941;49.516;8.286;2023-07-16T12:36:49;5.75;;;2.55;;
62848;SDS011;48941;49.516;8.286;2023-07-16T12:39:17;4.88;;;2.35;;
62848;SDS011;48941;49.516;8.286;2023-07-16T12:41:45;4.53;;;2.45;;
62848;SDS011;48941;49.516;8.286;2023-07-16T12:44:13;7.03;;;2.80;;
62848;SDS011;48941;49.516;8.286;2023-07-16T12:46:42;3.78;;;2.60;;
62848;SDS011;48941;49.516;8.286;2023-07-16T12:49:10;6.45;;;2.83;;
62848;SDS011;48941;49.516;8.286;2023-07-16T12:51:38;5.70;;;2.75;;
62848;SDS011;48941;49.516;8.286;2023-07-16T12:54:05;4.60;;;2.70;;
62848;SDS011;48941;49.516;8.286;2023-07-16T12:56:33;4.22;;;2.55;;
62848;SDS011;48941;49.516;8.286;2023-07-16T12:59:01;3.97;;;2.67;;
62848;SDS011;48941;49.516;8.286;2023-07-16T13:01:29;4.57;;;2.50;;
62848;SDS011;48941;49.516;8.286;2023-07-16T13:03:59;5.88;;;2.92;;
62848;SDS011;48941;49.516;8.286;2023-07-16T13:06:27;4.78;;;2.70;;
62848;SDS011;48941;49.516;8.286;2023-07-16T13:08:54;4.47;;;2.80;;
62848;SDS011;48941;49.516;8.286;2023-07-16T13:11:23;6.32;;;2.60;;
62848;SDS011;48941;49.516;8.286;2023-07-16T13:13:51;4.97;;;2.85;;
62848;SDS011;48941;49.516;8.286;2023-07-16T13:16:19;4.18;;;2.75;;
62848;SDS011;48941;49.516;8.286;2023-07-16T13:18:47;6.93;;;2.70;;
62848;SDS011;48941;49.516;8.286;2023-07-16T13:21:16;8.95;;;3.00;;
62848;SDS011;48941;49.516;8.286;2023-07-16T13:23:44;5.93;;;2.88;;
62848;SDS011;48941;49.516;8.286;2023-07-16T13:26:12;5.13;;;3.10;;
62848;SDS011;48941;49.516;8.286;2023-07-16T13:28:40;5.15;;;3.10;;
62848;SDS011;48941;49.516;8.286;2023-07-16T13:31:07;5.57;;;2.90;;
62848;SDS011;48941;49.516;8.286;2023-07-16T13:33:35;5.68;;;2.85;;
62848;SDS011;48941;49.516;8.286;2023-07-16T13:36:04;4.97;;;2.80;;
62848;SDS011;48941;49.516;8.286;2023-07-16T13:38:34;4.65;;;3.08;;
62848;SDS011;48941;49.516;8.286;2023-07-16T13:41:01;7.28;;;2.80;;
62848;SDS011;48941;49.516;8.286;2023-07-16T13:43:29;4.45;;;2.97;;
62848;SDS011;48941;49.516;8.286;2023-07-16T13:45:57;9.20;;;3.10;;
62848;SDS011;48941;49.516;8.286;2023-07-16T13:48:25;5.10;;;3.17;;
62848;SDS011;48941;49.516;8.286;2023-07-16T13:50:53;5.47;;;3.25;;
62848;SDS011;48941;49.516;8.286;2023-07-16T13:53:20;4.63;;;2.60;;
62848;SDS011;48941;49.516;8.286;2023-07-16T13:55:50;5.68;;;2.97;;
62848;SDS011;48941;49.516;8.286;2023-07-16T13:58:19;4.37;;;2.83;;
62848;SDS011;48941;49.516;8.286;2023-07-16T14:00:47;5.78;;;3.30;;
62848;SDS011;48941;49.516;8.286;2023-07-16T14:03:15;9.50;;;3.17;;
62848;SDS011;48941;49.516;8.286;2023-07-16T14:05:42;6.43;;;2.85;;
62848;SDS011;48941;49.516;8.286;2023-07-16T14:08:10;5.57;;;3.20;;
62848;SDS011;48941;49.516;8.286;2023-07-16T14:10:38;3.88;;;2.80;;
62848;SDS011;48941;49.516;8.286;2023-07-16T14:13:07;6.75;;;3.15;;
62848;SDS011;48941;49.516;8.286;2023-07-16T14:15:35;6.07;;;2.92;;
62848;SDS011;48941;49.516;8.286;2023-07-16T14:18:02;5.93;;;3.17;;
62848;SDS011;48941;49.516;8.286;2023-07-16T14:20:30;6.93;;;3.30;;
62848;SDS011;48941;49.516;8.286;2023-07-16T14:22:58;4.53;;;2.72;;
62848;SDS011;48941;49.516;8.286;2023-07-16T14:25:26;8.80;;;3.10;;
62848;SDS011;48941;49.516;8.286;2023-07-16T14:27:54;4.68;;;3.17;;
62848;SDS011;48941;49.516;8.286;2023-07-16T14:30:23;5.65;;;2.80;;
62848;SDS011;48941;49.516;8.286;2023-07-16T14:32:51;4.93;;;3.00;;
62848;SDS011;48941;49.516;8.286;2023-07-16T14:35:19;6.93;;;3.30;;
62848;SDS011;48941;49.516;8.286;2023-07-16T14:38:02;6.50;;;3.13;;
62848;SDS011;48941;49.516;8.286;2023-07-16T14:40:29;6.45;;;3.50;;
62848;SDS011;48941;49.516;8.286;2023-07-16T14:42:57;6.00;;;3.40;;
62848;SDS011;48941;49.516;8.286;2023-07-16T14:45:27;5.18;;;3.10;;
62848;SDS011;48941;49.516;8.286;2023-07-16T14:47:55;9.10;;;3.25;;
62848;SDS011;48941;49.516;8.286;2023-07-16T14:50:23;8.02;;;3.58;;
62848;SDS011;48941;49.516;8.286;2023-07-16T14:52:51;5.13;;;2.90;;
62848;SDS011;48941;49.516;8.286;2023-07-16T14:55:19;14.40;;;3.55;;
62848;SDS011;48941;49.516;8.286;2023-07-16T14:57:46;10.30;;;3.30;;
62848;SDS011;48941;49.516;8.286;2023-07-16T15:00:14;5.55;;;3.20;;